Time;durP1;ratioP1;P1;durP2;ratioP2;P2;SDS_P1;SDS_P2;PMS_P1;PMS_P2;Temp;Humidity;BMP_temperature;BMP_pressure;BME280_temperature;BME280_humidity;BME280_pressure;Samples;Min_cycle;Max_cycle;Signal;HPM_P1;HPM_P2
2023/07/30 04:30:37;;;;;;;10.23;2.38;;;16.20;81.40;;;;;;5734497;23;20276;-75
2023/07/30 04:33:02;;;;;;;12.15;2.25;;;16.20;81.30;;;;;;4917946;29;20064;-75
2023/07/30 04:35:28;;;;;;;11.18;2.25;;;16.30;81.30;;;;;;4901226;29;20036;-75
2023/07/30 04:37:53;;;;;;;15.40;2.50;;;16.30;81.20;;;;;;4922719;29;20486;-75
2023/07/30 04:40:19;;;;;;;12.90;3.22;;;16.30;81.10;;;;;;4905877;29;20124;-75
2023/07/30 04:42:45;;;;;;;12.18;2.50;;;16.40;81.00;;;;;;4922991;29;20364;-75
2023/07/30 04:45:11;;;;;;;13.55;2.60;;;16.40;80.90;;;;;;4922588;29;20171;-75
2023/07/30 04:47:37;;;;;;;9.30;2.45;;;16.40;81.10;;;;;;4922655;29;20056;-74
2023/07/30 04:50:02;;;;;;;14.07;2.50;;;16.30;81.40;;;;;;4922655;29;20051;-74
2023/07/30 04:52:28;;;;;;;18.08;2.75;;;16.40;81.30;;;;;;4922467;29;20035;-75
2023/07/30 04:54:54;;;;;;;14.43;2.85;;;16.40;81.20;;;;;;4922463;29;20080;-75
2023/07/30 04:57:19;;;;;;;12.45;2.70;;;16.40;81.40;;;;;;4922542;29;20028;-75
2023/07/30 04:59:45;;;;;;;10.68;2.78;;;16.40;81.40;;;;;;4905306;29;20439;-76
2023/07/30 05:02:11;;;;;;;14.05;2.60;;;16.40;81.40;;;;;;4922639;29;20047;-75
2023/07/30 05:04:36;;;;;;;17.77;2.97;;;16.40;81.30;;;;;;4905118;29;20028;-74
2023/07/30 05:07:02;;;;;;;16.83;2.50;;;16.50;81.50;;;;;;4922552;29;20036;-74
2023/07/30 05:09:27;;;;;;;12.20;2.38;;;16.50;81.30;;;;;;4921974;29;20036;-74
2023/07/30 05:11:53;;;;;;;13.82;2.47;;;16.60;81.10;;;;;;4921425;29;20028;-74
2023/07/30 05:14:18;;;;;;;11.70;2.38;;;16.50;81.00;;;;;;4920857;29;20495;-74
2023/07/30 05:16:44;;;;;;;14.52;2.15;;;16.60;81.00;;;;;;4922404;29;20051;-74
2023/07/30 05:19:10;;;;;;;15.65;2.78;;;16.70;80.90;;;;;;4922486;29;20087;-75
2023/07/30 05:21:35;;;;;;;17.40;2.67;;;16.80;80.80;;;;;;4922212;29;20036;-73
2023/07/30 05:24:01;;;;;;;14.40;2.92;;;16.80;80.70;;;;;;4922313;29;20032;-75
2023/07/30 05:26:27;;;;;;;14.18;3.00;;;16.80;80.70;;;;;;4922332;29;20032;-74
2023/07/30 05:28:52;;;;;;;12.88;2.60;;;16.80;80.70;;;;;;4922607;29;20032;-73
2023/07/30 05:31:18;;;;;;;12.57;2.50;;;16.80;80.60;;;;;;4921641;29;20079;-74
2023/07/30 05:33:43;;;;;;;11.10;2.58;;;16.80;80.60;;;;;;4904947;29;20044;-74
2023/07/30 05:36:09;;;;;;;17.45;2.90;;;16.80;80.70;;;;;;4918927;29;20546;-74
2023/07/30 05:38:34;;;;;;;12.75;2.90;;;16.80;80.60;;;;;;4922018;29;20032;-74
2023/07/30 05:41:00;;;;;;;11.13;2.88;;;16.80;80.70;;;;;;4922022;29;20135;-74
2023/07/30 05:43:26;;;;;;;12.10;2.83;;;16.80;80.80;;;;;;4922905;29;20024;-74
2023/07/30 05:45:52;;;;;;;11.60;2.72;;;16.90;80.80;;;;;;4922507;29;20087;-75
2023/07/30 05:48:17;;;;;;;6.75;2.20;;;16.90;80.70;;;;;;4906684;29;20070;-75
2023/07/30 05:50:43;;;;;;;10.70;2.88;;;16.90;80.70;;;;;;4923319;29;20088;-79
2023/07/30 05:53:09;;;;;;;14.18;2.35;;;17.00;80.60;;;;;;4905798;29;20060;-77
2023/07/30 05:55:34;;;;;;;12.82;2.42;;;17.00;80.60;;;;;;4919410;29;20020;-85
2023/07/30 05:58:00;;;;;;;12.30;2.17;;;17.10;80.50;;;;;;4920813;29;20031;-82
2023/07/30 06:00:26;;;;;;;16.38;3.50;;;17.10;80.50;;;;;;4919878;29;20123;-78
2023/07/30 06:02:51;;;;;;;10.43;2.38;;;17.20;80.40;;;;;;4920294;29;20494;-80
2023/07/30 06:05:17;;;;;;;12.77;2.72;;;17.30;80.40;;;;;;4923163;29;20118;-80
2023/07/30 06:07:43;;;;;;;11.52;2.47;;;17.30;80.40;;;;;;4923082;29;20119;-80
2023/07/30 06:10:09;;;;;;;11.65;2.20;;;17.20;80.30;;;;;;4921175;29;20068;-76
2023/07/30 06:12:34;;;;;;;19.92;3.33;;;17.30;80.10;;;;;;4921443;29;20024;-77
2023/07/30 06:15:00;;;;;;;13.20;3.10;;;17.40;79.90;;;;;;4920499;29;20076;-77
2023/07/30 06:17:26;;;;;;;10.38;2.50;;;17.30;79.80;;;;;;4922057;29;20800;-76
2023/07/30 06:19:51;;;;;;;11.00;2.78;;;17.40;79.70;;;;;;4922862;29;20039;-77
2023/07/30 06:22:17;;;;;;;12.93;2.78;;;17.50;79.60;;;;;;4922586;29;20028;-77
2023/07/30 06:24:43;;;;;;;10.35;2.38;;;17.60;79.30;;;;;;4922482;29;20047;-77
2023/07/30 06:27:09;;;;;;;9.32;2.03;;;17.70;79.40;;;;;;4922529;29;20032;-76
2023/07/30 06:29:36;;;;;;;10.93;3.20;;;17.70;78.60;;;;;;4922874;29;20039;-77
2023/07/30 06:32:02;;;;;;;19.23;3.72;;;17.70;79.10;;;;;;4922205;29;20403;-77
2023/07/30 06:34:27;;;;;;;10.07;2.85;;;17.70;79.10;;;;;;4922707;29;20028;-77
2023/07/30 06:36:53;;;;;;;13.77;2.88;;;17.80;78.80;;;;;;4922444;29;20035;-77
2023/07/30 06:39:18;;;;;;;12.10;3.22;;;17.80;78.80;;;;;;4922554;29;20471;-77
2023/07/30 06:41:44;;;;;;;8.48;3.15;;;17.80;78.50;;;;;;4922343;29;20061;-77
2023/07/30 06:44:10;;;;;;;13.45;2.90;;;17.90;78.20;;;;;;4922680;29;20032;-77
2023/07/30 06:46:35;;;;;;;13.85;2.67;;;18.00;78.20;;;;;;4922418;29;20028;-78
2023/07/30 06:49:01;;;;;;;15.07;2.78;;;18.10;77.80;;;;;;4922507;29;20091;-77
2023/07/30 06:51:27;;;;;;;16.35;3.05;;;18.10;77.50;;;;;;4905087;29;20068;-77
2023/07/30 06:53:54;;;;;;;9.90;2.40;;;18.10;77.40;;;;;;4922350;29;20103;-77
2023/07/30 06:56:19;;;;;;;12.60;2.97;;;18.20;77.40;;;;;;4922432;29;20028;-77
2023/07/30 06:58:45;;;;;;;12.38;2.75;;;18.20;77.10;;;;;;4921608;29;20475;-77
2023/07/30 07:01:10;;;;;;;16.05;4.05;;;18.20;77.20;;;;;;4921711;29;20028;-77
2023/07/30 07:03:36;;;;;;;16.55;2.78;;;18.20;77.20;;;;;;4921961;29;20044;-77
2023/07/30 07:06:02;;;;;;;14.18;3.00;;;18.30;76.70;;;;;;4922035;29;20032;-77
2023/07/30 07:08:27;;;;;;;12.93;2.80;;;18.30;77.00;;;;;;4922050;29;20391;-77
2023/07/30 07:10:53;;;;;;;15.13;2.88;;;18.30;76.60;;;;;;4921832;29;20478;-76
2023/07/30 07:13:18;;;;;;;15.73;3.03;;;18.50;76.40;;;;;;4922076;29;20028;-77
2023/07/30 07:15:44;;;;;;;12.68;2.97;;;18.70;75.90;;;;;;4904831;29;20059;-76
2023/07/30 07:18:10;;;;;;;8.05;2.60;;;18.80;75.70;;;;;;4904685;29;20028;-77
2023/07/30 07:20:37;;;;;;;12.23;3.92;;;18.90;75.30;;;;;;4921770;29;20056;-77
2023/07/30 07:23:02;;;;;;;17.40;3.28;;;19.00;74.90;;;;;;4921896;29;20032;-77
2023/07/30 07:25:28;;;;;;;16.92;3.28;;;19.20;74.80;;;;;;4904730;29;20032;-77
2023/07/30 07:27:54;;;;;;;15.13;3.10;;;19.40;74.10;;;;;;4921671;29;20039;-77
2023/07/30 07:30:19;;;;;;;14.35;3.35;;;19.70;72.90;;;;;;4904435;29;20052;-77
2023/07/30 07:32:45;;;;;;;16.65;3.45;;;20.60;71.20;;;;;;4921358;29;20072;-77
2023/07/30 07:35:10;;;;;;;15.45;3.50;;;21.50;68.60;;;;;;4920920;29;20040;-77
2023/07/30 07:37:36;;;;;;;17.35;3.78;;;23.10;63.20;;;;;;4921392;29;20031;-77
2023/07/30 07:40:03;;;;;;;15.02;3.65;;;22.80;62.30;;;;;;4921696;29;20060;-77
2023/07/30 07:42:30;;;;;;;13.75;3.42;;;23.50;61.50;;;;;;4921593;29;20064;-77
2023/07/30 07:44:56;;;;;;;18.27;4.07;;;23.60;59.10;;;;;;4921668;29;20040;-77
2023/07/30 07:47:21;;;;;;;16.85;4.25;;;25.40;56.60;;;;;;4921562;29;20497;-77
2023/07/30 07:49:48;;;;;;;13.18;4.63;;;24.30;57.10;;;;;;4921571;29;20067;-77
2023/07/30 07:52:14;;;;;;;9.25;3.92;;;23.90;57.70;;;;;;4921491;29;20534;-77
2023/07/30 07:54:41;;;;;;;14.25;3.60;;;23.80;58.70;;;;;;4921330;29;20107;-77
2023/07/30 07:57:07;;;;;;;17.92;3.72;;;23.80;58.90;;;;;;4906433;29;20471;-77
2023/07/30 07:59:33;;;;;;;16.33;4.35;;;23.00;59.70;;;;;;4921328;29;20024;-77
2023/07/30 08:01:58;;;;;;;16.02;3.83;;;22.80;60.20;;;;;;4921323;29;20028;-77
2023/07/30 08:04:24;;;;;;;17.55;4.25;;;22.50;61.90;;;;;;4921060;29;20035;-77
2023/07/30 08:06:50;;;;;;;11.82;4.05;;;22.10;63.40;;;;;;4921108;29;20039;-77
2023/07/30 08:09:15;;;;;;;18.40;4.13;;;22.00;64.00;;;;;;4922130;29;20028;-77
2023/07/30 08:11:41;;;;;;;16.20;4.40;;;21.80;63.70;;;;;;4925199;29;20024;-78
2023/07/30 08:14:06;;;;;;;18.50;4.45;;;22.80;61.70;;;;;;4925285;29;20028;-77
2023/07/30 08:16:32;;;;;;;15.68;4.00;;;23.60;58.60;;;;;;4924973;29;20395;-78
2023/07/30 08:18:57;;;;;;;16.67;4.70;;;23.80;57.90;;;;;;4907994;29;20494;-77
2023/07/30 08:21:23;;;;;;;15.98;4.00;;;23.50;58.40;;;;;;4925070;29;20029;-77
2023/07/30 08:23:49;;;;;;;14.27;3.75;;;24.30;57.80;;;;;;4925000;29;20078;-78
2023/07/30 08:26:15;;;;;;;14.45;4.30;;;25.50;54.00;;;;;;4924816;29;20546;-77
2023/07/30 08:28:41;;;;;;;15.13;3.95;;;25.10;54.50;;;;;;4924903;29;20483;-77
2023/07/30 08:31:06;;;;;;;13.10;3.80;;;26.60;50.50;;;;;;4924634;29;20074;-77
2023/07/30 08:33:32;;;;;;;16.92;4.63;;;25.90;50.30;;;;;;4925060;29;20028;-77
2023/07/30 08:35:59;;;;;;;13.75;4.43;;;27.20;50.40;;;;;;4907463;29;20028;-78
2023/07/30 08:38:25;;;;;;;12.85;4.20;;;28.00;46.90;;;;;;4924677;29;20063;-78
2023/07/30 08:40:51;;;;;;;12.85;4.07;;;27.30;47.00;;;;;;4924897;29;20020;-78
2023/07/30 08:43:18;;;;;;;17.58;4.25;;;28.00;46.90;;;;;;4924651;29;20036;-78
2023/07/30 08:45:44;;;;;;;15.13;4.15;;;27.60;47.30;;;;;;4924521;29;20526;-78
2023/07/30 08:48:10;;;;;;;14.05;4.22;;;27.00;48.50;;;;;;4924607;29;20028;-78
2023/07/30 08:50:37;;;;;;;14.65;4.60;;;26.80;48.80;;;;;;4907373;29;20028;-77
2023/07/30 08:53:03;;;;;;;18.92;5.03;;;26.30;48.90;;;;;;4907395;29;20755;-77
2023/07/30 08:55:29;;;;;;;13.57;4.50;;;26.30;50.90;;;;;;4924217;29;20028;-78
2023/07/30 08:57:57;;;;;;;13.95;4.38;;;26.10;51.40;;;;;;4924494;29;20120;-77
2023/07/30 09:00:25;;;;;;;14.75;4.63;;;25.50;52.30;;;;;;4924046;29;20477;-77
2023/07/30 09:03:02;;;;;;;14.68;4.10;;;25.00;52.50;;;;;;4924259;29;20024;-77
2023/07/30 09:05:29;;;;;;;16.67;4.32;;;24.70;52.50;;;;;;4924153;29;20048;-77
2023/07/30 09:07:55;;;;;;;14.23;3.63;;;24.40;53.50;;;;;;4924110;29;20364;-77
2023/07/30 09:10:21;;;;;;;10.63;3.78;;;24.00;55.10;;;;;;4924160;29;20097;-77
2023/07/30 09:12:58;;;;;;;16.15;4.30;;;23.90;55.60;;;;;;4923968;29;20028;-77
2023/07/30 09:15:37;;;;;;;14.48;3.55;;;24.00;55.50;;;;;;4907155;29;20020;-77
2023/07/30 09:18:04;;;;;;;14.30;4.03;;;24.40;55.80;;;;;;4907061;29;20432;-77
2023/07/30 09:20:40;;;;;;;13.23;3.70;;;24.50;55.20;;;;;;4906683;29;20020;-77
2023/07/30 09:23:09;;;;;;;15.13;4.18;;;24.10;55.30;;;;;;4923639;29;20032;-77
2023/07/30 09:25:36;;;;;;;15.43;3.92;;;23.60;56.30;;;;;;4924036;29;20020;-77
2023/07/30 09:28:01;;;;;;;13.02;3.75;;;23.30;57.40;;;;;;4906916;29;20459;-77
2023/07/30 09:30:27;;;;;;;16.23;4.32;;;23.30;58.90;;;;;;4923547;29;20083;-77
2023/07/30 09:32:55;;;;;;;12.32;3.80;;;23.30;58.70;;;;;;4923736;29;20032;-77
2023/07/30 09:35:24;;;;;;;14.60;4.30;;;23.50;58.50;;;;;;4923624;29;20020;-77
2023/07/30 09:37:57;;;;;;;11.45;3.75;;;24.10;57.50;;;;;;4923026;29;20043;-77
2023/07/30 09:40:34;;;;;;;14.10;4.25;;;24.00;56.60;;;;;;4923718;29;20047;-77
2023/07/30 09:43:01;;;;;;;15.10;3.90;;;23.60;57.30;;;;;;4923659;29;20562;-77
2023/07/30 09:45:27;;;;;;;14.48;4.45;;;23.30;58.70;;;;;;4906506;29;20514;-77
2023/07/30 09:47:56;;;;;;;13.70;3.83;;;23.30;59.00;;;;;;4923956;29;20028;-77
2023/07/30 09:50:22;;;;;;;16.73;4.38;;;23.50;59.40;;;;;;4906277;29;20024;-77
2023/07/30 09:52:49;;;;;;;15.07;4.38;;;23.60;58.30;;;;;;4923255;29;20103;-77
2023/07/30 09:55:16;;;;;;;13.82;4.07;;;23.80;58.20;;;;;;4906460;29;20028;-77
2023/07/30 09:57:41;;;;;;;15.23;4.50;;;23.80;57.80;;;;;;4923506;29;20031;-77
2023/07/30 10:00:11;;;;;;;13.25;4.55;;;23.80;57.60;;;;;;4923226;29;20020;-77
2023/07/30 10:02:44;;;;;;;15.23;4.53;;;23.80;57.90;;;;;;4922607;29;20035;-77
2023/07/30 10:05:14;;;;;;;13.95;3.90;;;23.70;56.90;;;;;;4923188;29;20028;-77
2023/07/30 10:07:53;;;;;;;13.38;4.05;;;23.70;57.70;;;;;;4908049;29;20024;-77
2023/07/30 10:10:19;;;;;;;15.52;3.80;;;23.80;57.40;;;;;;4923073;29;20028;-77
2023/07/30 10:12:46;;;;;;;11.57;4.75;;;23.80;57.50;;;;;;4922980;29;20020;-77
2023/07/30 10:15:12;;;;;;;13.48;4.57;;;23.90;56.40;;;;;;4923083;29;20044;-77
2023/07/30 10:17:37;;;;;;;13.95;4.88;;;24.00;56.70;;;;;;4914116;29;20387;-77
2023/07/30 10:20:24;;;;;;;17.25;4.63;;;24.20;55.90;;;;;;4920881;29;20116;-77
2023/07/30 10:22:54;;;;;;;15.60;4.15;;;24.10;56.30;;;;;;4905902;29;20087;-77
2023/07/30 10:25:30;;;;;;;17.60;4.70;;;24.10;56.30;;;;;;4923050;29;20079;-77
2023/07/30 10:27:57;;;;;;;17.48;4.93;;;23.90;55.80;;;;;;4922850;29;20020;-77
2023/07/30 10:30:30;;;;;;;10.85;3.90;;;23.90;57.20;;;;;;4922526;29;20039;-77
2023/07/30 10:32:59;;;;;;;17.05;3.80;;;23.80;57.00;;;;;;4922821;29;20028;-77
2023/07/30 10:35:40;;;;;;;11.35;3.90;;;23.70;57.10;;;;;;4922593;29;20039;-77
2023/07/30 10:38:20;;;;;;;14.27;4.35;;;23.40;57.40;;;;;;4905645;29;20032;-77
2023/07/30 10:41:13;;;;;;;17.02;4.18;;;23.30;58.20;;;;;;4905455;29;20035;-77
2023/07/30 10:43:41;;;;;;;15.02;3.90;;;23.20;58.40;;;;;;4920877;29;20062;-77
2023/07/30 10:46:11;;;;;;;16.17;4.00;;;23.20;58.80;;;;;;4922463;29;20439;-77
2023/07/30 10:48:41;;;;;;;15.35;5.10;;;23.30;58.50;;;;;;4905385;29;20038;-77
2023/07/30 10:51:10;;;;;;;14.15;4.45;;;23.50;58.90;;;;;;4904983;29;20039;-77
2023/07/30 10:53:45;;;;;;;13.30;4.32;;;23.60;58.80;;;;;;4922298;29;20024;-77
2023/07/30 10:56:11;;;;;;;14.13;4.53;;;23.60;57.30;;;;;;4922346;29;20107;-77
2023/07/30 10:58:37;;;;;;;14.60;4.20;;;23.70;57.70;;;;;;4922300;29;20076;-77
2023/07/30 11:01:08;;;;;;;12.50;4.30;;;23.80;57.30;;;;;;4921783;29;20096;-77
2023/07/30 11:03:34;;;;;;;11.07;4.32;;;23.80;56.70;;;;;;4922345;29;20557;-77
2023/07/30 11:06:02;;;;;;;9.60;3.22;;;23.80;56.80;;;;;;4922034;29;20036;-77
2023/07/30 11:08:36;;;;;;;15.02;4.35;;;24.10;57.20;;;;;;4921927;29;20024;-77
2023/07/30 11:11:02;;;;;;;13.45;3.75;;;24.40;55.90;;;;;;4922103;29;20031;-77
2023/07/30 11:13:28;;;;;;;14.30;4.25;;;24.50;55.80;;;;;;4922107;29;20052;-77
2023/07/30 11:15:54;;;;;;;16.85;4.20;;;24.60;56.40;;;;;;4922014;29;20032;-77
2023/07/30 11:18:19;;;;;;;9.90;3.13;;;24.60;55.80;;;;;;4921828;29;20106;-77
2023/07/30 11:20:45;;;;;;;12.55;3.20;;;24.60;54.50;;;;;;4921801;29;20039;-77
2023/07/30 11:23:21;;;;;;;11.85;3.92;;;24.80;54.70;;;;;;4904787;29;20487;-77
2023/07/30 11:25:48;;;;;;;12.52;3.38;;;25.20;54.90;;;;;;4921750;29;20036;-77
2023/07/30 11:28:15;;;;;;;15.10;3.90;;;25.10;54.00;;;;;;4921749;29;20024;-77
2023/07/30 11:30:41;;;;;;;12.45;3.80;;;24.80;53.90;;;;;;4920966;29;20024;-77
2023/07/30 11:33:06;;;;;;;11.45;3.55;;;24.60;54.30;;;;;;4921755;29;20550;-77
2023/07/30 11:35:32;;;;;;;10.75;3.60;;;24.80;54.80;;;;;;4921608;29;20039;-77
2023/07/30 11:37:58;;;;;;;10.68;4.10;;;24.80;54.20;;;;;;4921435;29;20427;-77
2023/07/30 11:40:24;;;;;;;12.77;3.75;;;24.70;53.70;;;;;;4904519;29;20032;-77
2023/07/30 11:42:50;;;;;;;17.40;4.70;;;24.60;54.50;;;;;;4921488;29;20029;-77
2023/07/30 11:45:23;;;;;;;8.38;3.22;;;24.90;54.50;;;;;;4921180;29;20024;-77
2023/07/30 11:47:49;;;;;;;12.05;3.45;;;25.10;54.50;;;;;;4921683;29;20056;-77
2023/07/30 11:50:16;;;;;;;12.02;3.45;;;25.10;53.50;;;;;;4904566;29;20021;-78
2023/07/30 11:52:55;;;;;;;13.18;3.60;;;25.10;53.00;;;;;;4921350;29;20589;-77
2023/07/30 11:55:23;;;;;;;10.75;3.78;;;25.00;53.20;;;;;;4921566;29;20016;-78
2023/07/30 11:57:48;;;;;;;9.35;3.45;;;25.20;54.00;;;;;;4921391;29;20024;-78
2023/07/30 12:00:15;;;;;;;13.27;3.58;;;25.20;53.20;;;;;;4921086;29;20034;-77
2023/07/30 12:02:41;;;;;;;12.20;4.03;;;25.20;54.20;;;;;;4920933;29;20043;-77
2023/07/30 12:05:10;;;;;;;11.70;3.28;;;25.40;54.20;;;;;;4921161;29;20040;-78
2023/07/30 12:07:40;;;;;;;9.32;3.05;;;25.40;53.70;;;;;;4921217;29;20052;-77
2023/07/30 12:10:10;;;;;;;9.38;3.25;;;25.30;52.40;;;;;;4921369;29;20032;-78
2023/07/30 12:12:36;;;;;;;16.63;3.55;;;25.10;53.50;;;;;;4921119;29;20106;-77
2023/07/30 12:15:01;;;;;;;10.45;2.97;;;25.00;54.10;;;;;;4921229;29;20029;-77
2023/07/30 12:17:27;;;;;;;9.38;3.65;;;24.80;54.30;;;;;;4921332;29;20027;-78
2023/07/30 12:19:53;;;;;;;12.80;3.13;;;24.40;54.70;;;;;;4921293;29;20028;-77
2023/07/30 12:22:18;;;;;;;13.65;3.28;;;24.30;55.10;;;;;;4921223;29;20382;-77
2023/07/30 12:24:44;;;;;;;11.80;3.30;;;24.30;54.60;;;;;;4921151;29;20087;-78
2023/07/30 12:27:10;;;;;;;10.15;3.42;;;24.20;55.00;;;;;;4921274;29;20032;-77
2023/07/30 12:29:36;;;;;;;10.35;3.05;;;24.00;54.50;;;;;;4921133;29;20099;-77
2023/07/30 12:32:01;;;;;;;14.50;3.55;;;23.90;56.30;;;;;;4920773;29;20506;-77
2023/07/30 12:34:27;;;;;;;12.55;3.75;;;23.80;56.20;;;;;;4904136;29;20025;-77
2023/07/30 12:36:52;;;;;;;11.73;3.00;;;23.70;55.50;;;;;;4920990;29;20467;-77
2023/07/30 12:39:18;;;;;;;9.68;2.78;;;23.70;55.90;;;;;;4921253;29;20048;-77
2023/07/30 12:41:43;;;;;;;11.43;2.97;;;23.70;56.90;;;;;;4921068;29;20036;-77
2023/07/30 12:44:09;;;;;;;10.80;3.00;;;23.70;57.30;;;;;;4904000;29;20024;-77
2023/07/30 12:46:35;;;;;;;9.20;3.03;;;23.70;57.40;;;;;;4921277;29;20051;-77
2023/07/30 12:49:04;;;;;;;12.20;3.67;;;23.80;57.30;;;;;;4921046;29;20028;-77
2023/07/30 12:51:33;;;;;;;10.95;3.20;;;23.50;56.50;;;;;;4920865;29;20390;-78
2023/07/30 12:53:59;;;;;;;8.05;3.30;;;23.30;57.80;;;;;;4903843;29;20561;-77
2023/07/30 12:56:24;;;;;;;8.40;3.08;;;23.20;58.40;;;;;;4921885;29;20103;-77
2023/07/30 12:58:50;;;;;;;15.65;3.90;;;23.00;59.50;;;;;;4924667;29;20028;-77
2023/07/30 13:01:16;;;;;;;8.27;3.08;;;22.80;59.70;;;;;;4923961;29;20486;-77
2023/07/30 13:03:46;;;;;;;9.85;2.53;;;22.70;60.10;;;;;;4924548;29;20534;-77
2023/07/30 13:06:12;;;;;;;10.80;2.78;;;22.50;60.40;;;;;;4924283;29;20115;-77
2023/07/30 13:08:40;;;;;;;11.30;3.63;;;22.40;61.40;;;;;;4924186;29;20083;-77
2023/07/30 13:11:05;;;;;;;9.55;3.15;;;22.50;61.60;;;;;;4906941;29;20032;-77
2023/07/30 13:13:31;;;;;;;9.55;2.53;;;22.60;62.10;;;;;;4924400;29;20060;-77
2023/07/30 13:15:57;;;;;;;11.43;3.15;;;22.70;62.20;;;;;;4924399;29;20032;-77
2023/07/30 13:18:23;;;;;;;14.05;2.90;;;22.80;61.90;;;;;;4924232;29;20024;-77
2023/07/30 13:20:49;;;;;;;8.43;3.30;;;22.90;62.40;;;;;;4906613;29;20028;-77
2023/07/30 13:23:15;;;;;;;10.00;2.95;;;23.00;61.50;;;;;;4923883;29;20027;-78
2023/07/30 13:25:41;;;;;;;13.77;2.90;;;23.10;62.30;;;;;;4924017;29;20035;-77
2023/07/30 13:28:07;;;;;;;9.65;2.85;;;23.30;61.40;;;;;;4924015;29;20107;-78
2023/07/30 13:30:33;;;;;;;12.75;3.50;;;23.50;60.80;;;;;;4922970;29;20055;-77
2023/07/30 13:32:58;;;;;;;10.50;3.97;;;23.80;60.30;;;;;;4924034;29;20471;-77
2023/07/30 13:35:24;;;;;;;11.45;2.80;;;23.80;60.10;;;;;;4906794;29;20035;-77
2023/07/30 13:37:49;;;;;;;10.55;3.05;;;23.80;59.90;;;;;;4923637;29;20028;-77
2023/07/30 13:40:15;;;;;;;7.75;2.63;;;23.70;60.30;;;;;;4906587;29;20115;-78
2023/07/30 13:42:40;;;;;;;10.05;2.70;;;23.80;59.30;;;;;;4923765;29;20436;-77
2023/07/30 13:45:06;;;;;;;8.30;2.58;;;24.00;58.90;;;;;;4923890;29;20028;-77
2023/07/30 13:47:32;;;;;;;6.18;2.28;;;24.10;58.60;;;;;;4923523;29;20040;-78
2023/07/30 13:49:58;;;;;;;8.35;2.30;;;24.30;58.30;;;;;;4923600;29;20069;-77
2023/07/30 13:52:23;;;;;;;8.95;1.85;;;24.50;58.60;;;;;;4923389;29;20032;-77
2023/07/30 13:54:49;;;;;;;5.00;2.10;;;24.90;57.80;;;;;;4916953;29;20028;-77
2023/07/30 13:57:25;;;;;;;5.47;2.00;;;25.10;56.50;;;;;;4923400;29;20031;-77
2023/07/30 13:59:51;;;;;;;7.28;2.13;;;25.20;56.00;;;;;;4923011;29;20017;-77
2023/07/30 14:02:17;;;;;;;6.65;2.05;;;25.10;54.70;;;;;;4908513;29;20126;-78
2023/07/30 14:04:43;;;;;;;6.30;2.25;;;24.90;55.20;;;;;;4923308;29;20089;-78
2023/07/30 14:07:08;;;;;;;6.90;2.22;;;24.50;56.00;;;;;;4922693;29;20032;-78
2023/07/30 14:09:36;;;;;;;9.52;2.28;;;24.30;56.10;;;;;;4923054;29;20028;-78
2023/07/30 14:12:03;;;;;;;6.38;2.13;;;24.00;56.20;;;;;;4923156;29;20028;-78
2023/07/30 14:14:28;;;;;;;6.63;2.03;;;23.80;56.30;;;;;;4923254;29;20552;-77
2023/07/30 14:16:54;;;;;;;8.38;2.33;;;23.70;57.70;;;;;;4923129;29;20020;-78
2023/07/30 14:19:20;;;;;;;5.68;2.05;;;23.50;57.30;;;;;;4922789;29;20024;-78
2023/07/30 14:21:46;;;;;;;7.53;2.10;;;23.50;57.90;;;;;;4922820;29;20028;-78
2023/07/30 14:24:12;;;;;;;9.00;3.72;;;23.40;58.10;;;;;;4922954;29;20395;-78
2023/07/30 14:26:37;;;;;;;8.95;2.60;;;23.30;58.20;;;;;;4922783;29;20024;-78
2023/07/30 14:29:03;;;;;;;10.05;3.20;;;23.10;58.90;;;;;;4922861;29;20021;-78
2023/07/30 14:31:29;;;;;;;7.68;3.38;;;23.30;59.50;;;;;;4922696;29;20384;-77
2023/07/30 14:33:54;;;;;;;8.07;3.05;;;23.30;60.40;;;;;;4905742;29;20506;-78
2023/07/30 14:36:20;;;;;;;7.28;2.80;;;23.30;61.70;;;;;;4922284;29;20035;-77
2023/07/30 14:38:45;;;;;;;7.43;2.97;;;23.30;63.20;;;;;;4922642;29;20031;-78
2023/07/30 14:41:12;;;;;;;13.82;3.45;;;23.40;63.30;;;;;;4922591;29;20048;-78
2023/07/30 14:43:37;;;;;;;12.90;3.50;;;23.40;62.40;;;;;;4922776;29;20028;-78
2023/07/30 14:46:03;;;;;;;13.20;3.58;;;23.40;62.10;;;;;;4922451;29;20032;-78
2023/07/30 14:48:29;;;;;;;12.95;4.35;;;23.70;61.50;;;;;;4922448;29;20035;-78
2023/07/30 14:50:54;;;;;;;11.27;3.33;;;23.90;60.40;;;;;;4922497;29;20122;-78
2023/07/30 14:53:20;;;;;;;13.00;3.22;;;24.00;60.50;;;;;;4922583;29;20024;-78
2023/07/30 14:55:46;;;;;;;9.18;2.45;;;24.30;60.10;;;;;;4922330;29;20471;-78
2023/07/30 14:58:11;;;;;;;11.35;3.20;;;24.50;58.60;;;;;;4922201;29;20526;-78
2023/07/30 15:00:37;;;;;;;8.98;3.35;;;24.50;57.30;;;;;;4922047;29;20039;-77
2023/07/30 15:03:04;;;;;;;12.90;3.45;;;24.20;57.70;;;;;;4922457;29;20024;-77
2023/07/30 15:05:30;;;;;;;14.02;3.13;;;24.20;58.50;;;;;;4921908;29;20133;-77
2023/07/30 15:07:56;;;;;;;8.73;2.95;;;24.00;58.40;;;;;;4922177;29;20028;-77
2023/07/30 15:10:22;;;;;;;11.88;3.40;;;23.80;59.00;;;;;;4922183;29;20028;-77
2023/07/30 15:12:47;;;;;;;10.60;3.70;;;23.80;59.30;;;;;;4922010;29;20076;-77
2023/07/30 15:15:13;;;;;;;9.50;3.20;;;23.70;59.10;;;;;;4904755;29;20431;-77
2023/07/30 15:17:39;;;;;;;11.20;3.70;;;23.70;57.70;;;;;;4922214;29;20447;-77
2023/07/30 15:20:05;;;;;;;12.35;3.13;;;23.50;58.50;;;;;;4921334;29;20083;-77
2023/07/30 15:22:31;;;;;;;12.05;3.35;;;23.60;57.90;;;;;;4904876;29;20552;-77
2023/07/30 15:24:56;;;;;;;10.52;3.10;;;23.80;58.00;;;;;;4921296;29;20032;-77
2023/07/30 15:27:22;;;;;;;12.23;3.63;;;24.00;58.30;;;;;;4921616;29;20024;-77
2023/07/30 15:29:48;;;;;;;10.00;2.95;;;24.30;56.70;;;;;;4921961;29;20032;-77
2023/07/30 15:32:13;;;;;;;11.55;3.75;;;24.50;56.10;;;;;;4921400;29;20048;-77
2023/07/30 15:34:40;;;;;;;8.65;3.20;;;24.70;56.20;;;;;;4921596;29;20035;-77
2023/07/30 15:37:05;;;;;;;12.82;4.30;;;24.60;56.50;;;;;;4904295;29;20024;-77
2023/07/30 15:39:34;;;;;;;10.57;3.53;;;24.40;55.30;;;;;;4921760;29;20032;-77
2023/07/30 15:42:01;;;;;;;11.50;3.55;;;24.40;55.90;;;;;;4921602;29;20020;-77
2023/07/30 15:44:27;;;;;;;10.40;3.47;;;24.20;56.60;;;;;;4921507;29;20090;-77
2023/07/30 15:46:52;;;;;;;10.68;3.75;;;24.00;56.80;;;;;;4921571;29;20024;-77
2023/07/30 15:49:18;;;;;;;12.57;3.35;;;23.80;57.00;;;;;;4921617;29;20032;-77
2023/07/30 15:51:44;;;;;;;10.32;3.50;;;23.80;58.10;;;;;;4904354;29;20028;-77
2023/07/30 15:54:10;;;;;;;11.38;3.30;;;23.60;58.20;;;;;;4921253;29;20035;-76
2023/07/30 15:56:36;;;;;;;13.27;3.10;;;23.70;58.00;;;;;;4905658;29;20029;-77
2023/07/30 15:59:02;;;;;;;8.48;3.35;;;23.70;57.50;;;;;;4921526;29;20032;-77
2023/07/30 16:01:27;;;;;;;13.43;2.92;;;23.70;58.00;;;;;;4921128;29;20035;-77
2023/07/30 16:03:53;;;;;;;8.98;2.97;;;23.80;57.60;;;;;;4912413;29;20029;-77
2023/07/30 16:06:22;;;;;;;11.00;3.10;;;23.60;57.80;;;;;;4894537;29;20402;-77
2023/07/30 16:08:48;;;;;;;7.82;2.75;;;23.50;58.00;;;;;;4902446;29;20035;-77
2023/07/30 16:11:14;;;;;;;9.60;2.80;;;23.30;58.10;;;;;;4896165;29;20115;-77
2023/07/30 16:13:40;;;;;;;8.07;2.92;;;23.20;58.70;;;;;;4921294;29;20031;-77
2023/07/30 16:16:19;;;;;;;9.20;2.88;;;23.10;59.10;;;;;;4921545;29;20417;-77
2023/07/30 16:18:46;;;;;;;9.63;3.50;;;23.00;60.00;;;;;;4921485;29;20024;-77
2023/07/30 16:21:12;;;;;;;8.27;2.70;;;23.00;60.70;;;;;;4921144;29;20032;-77
2023/07/30 16:23:38;;;;;;;9.85;2.92;;;23.00;61.00;;;;;;4921206;29;20033;-77
2023/07/30 16:26:05;;;;;;;10.35;2.97;;;23.00;60.80;;;;;;4921367;29;20024;-77
2023/07/30 16:28:31;;;;;;;9.90;3.22;;;23.10;60.90;;;;;;4921228;29;20399;-77
2023/07/30 16:30:57;;;;;;;10.13;2.90;;;23.20;61.10;;;;;;4922553;29;20044;-77
2023/07/30 16:33:24;;;;;;;7.47;3.10;;;23.30;61.30;;;;;;4924829;29;20055;-77
2023/07/30 16:35:50;;;;;;;9.32;2.97;;;23.30;60.50;;;;;;4924848;29;20030;-77
2023/07/30 16:38:17;;;;;;;11.80;3.45;;;23.20;60.60;;;;;;4924789;29;20517;-78
2023/07/30 16:40:43;;;;;;;9.77;3.28;;;23.30;60.80;;;;;;4908000;29;20030;-78
2023/07/30 16:43:09;;;;;;;11.77;3.10;;;23.20;60.70;;;;;;4924793;29;20028;-77
2023/07/30 16:45:35;;;;;;;9.07;2.97;;;23.30;59.90;;;;;;4924749;29;20032;-78
2023/07/30 16:48:01;;;;;;;10.68;2.63;;;23.20;59.80;;;;;;4907353;29;20061;-78
2023/07/30 16:50:26;;;;;;;12.35;2.95;;;23.10;58.20;;;;;;4907633;29;20782;-77
2023/07/30 16:52:52;;;;;;;8.40;2.78;;;23.00;58.50;;;;;;4924466;29;20036;-78
2023/07/30 16:55:18;;;;;;;8.68;2.58;;;23.00;58.40;;;;;;4924470;29;20428;-78
2023/07/30 16:57:43;;;;;;;7.80;3.00;;;23.00;58.80;;;;;;4924562;29;20039;-78
2023/07/30 17:00:09;;;;;;;10.63;2.97;;;23.00;58.90;;;;;;4924334;29;20024;-78
2023/07/30 17:02:35;;;;;;;8.13;3.28;;;23.00;59.10;;;;;;4907237;29;20043;-78
2023/07/30 17:05:01;;;;;;;8.40;2.83;;;23.00;59.50;;;;;;4907212;29;20028;-78